Strona główna
METAR-TAF:

METAR-TAF

Lotnisko :

Port lotniczy Północno-Środkowa Wirginia Zachodnia

Clarksburg, Wirginia Zachodnia, Stany Zjednoczone

Szerokość geograficzna: 39-18-00N, Długość geograficzna: 080-13-29W, wysokość: 366 m

Aktualna obserwacja pogody

Raport powstał 37 minut temu, godzina 19:53 UTC
Cisza
Temperatura 6°C
Wilgotność 42%
Ciśnienie 1028 hPa
Widzialność: 16.1 km

METAR: KCKB 071953Z 00000KT 10SM 06/M06 A3037 RMK AO2 SLP290 T00561056 $

czas: 15:30 (20:30 UTC)

Prognoza

Raport powstał 3 godziny i 10 minut temu, godzina 17:20 UTC
Prognoza ważna od 07 godzina 18 UTC do 08 godzina 18 UTC
Wiatr 3 kt z kierunków zmiennych
Widzialność: 10 km
Mało chmury na wysokości 25000 ft
Od 08 godzina 1500 UTC
Wiatr 6 kt od południe
Widzialność: 10 km
Mało chmury na wysokości 5000 ft
Przerywane chmury na wysokości 25000 ft

TAF: KCKB 071720Z 0718/0818 VRB03KT P6SM FEW250 FM081500 18006KT P6SM FEW050 BKN250

Obserwacja i prognoza pogody dla ponad 4000 lotnisk (raport METAR i TAF).

Dostępne stacje oznaczono żółtymi i czerwonymi punktami na mapie.

Najedź kursorem aby zobaczyć nazwę stacji.

Kliknij aby zobaczyć obserwacje i prognozy pogody.

Aby zmienić mapę: kliknij na zielony przycisk z czarnym krzyżykiem, aby powiększyć; na zielony przycisk z myślnikiem, aby pomniejszyć; na zielone strzałki, aby przejść do map sąsiednich.


METAR-TAF: